Maersk Essen — V7UQ8 — position and weather

sailwx.info

Track history (hours):
 
Tides and Currents Weather Stations Pressure Air Temp Water Temp Dewpoint Dewpoint Depression Visibility Wind Speed Wind Dir Waves Ship Positions

Maersk Essen

Last reported at 2015-Mar-28 17:32 UTC. Time now 2015-Mar-28 17:45 UTC.
Position N 53°35' E 008°09'.

Length 367 m; draft 10.4 m.

Type: Ship (hazmat cat A). MMSI: 538004007.

Date/timePositionNaut miles runAvg speedWind from/ knotsBaromVisibWave heightAir tempDewpointWater temp
2015-Mar-28 17:32N 53°35' E 008°09'0 0.0
2015-Mar-28 16:23N 53°35' E 008°09'0 0.0
2015-Mar-28 15:26N 53°35' E 008°09'0 0.0
2015-Mar-28 14:32N 53°35' E 008°09'0 0.0
2015-Mar-28 13:32N 53°35' E 008°09'0 0.0
2015-Mar-28 12:23N 53°35' E 008°09'0 0.0
2015-Mar-28 11:32N 53°35' E 008°09'0 0.0
2015-Mar-28 10:33N 53°35' E 008°09'0 0.0
2015-Mar-28 09:32N 53°35' E 008°09'0 0.0
2015-Mar-28 08:32N 53°35' E 008°09'0 0.0
2015-Mar-28 07:29N 53°35' E 008°09'0 0.0
2015-Mar-28 06:33N 53°35' E 008°09'5 4.7
2015-Mar-28 05:34N 53°40' E 008°06'1111.5
2015-Mar-28 04:34N 53°49' E 007°56'1615.7
2015-Mar-28 03:33N 53°60' E 007°36'3 3.0
2015-Mar-28 02:33N 54°03' E 007°33'2 1.5
2015-Mar-28 01:32N 54°02' E 007°30'0 0.0
2015-Mar-28 00:29N 54°02' E 007°30'0 0.0
2015-Mar-27 23:26N 54°02' E 007°30'0 0.0
2015-Mar-27 22:32N 54°02' E 007°30'0 0.1
2015-Mar-27 21:32N 54°02' E 007°30'0 0.0
2015-Mar-27 20:26N 54°02' E 007°30'0 0.0
2015-Mar-27 19:26N 54°02' E 007°30'0 0.0
2015-Mar-27 18:29N 54°02' E 007°30'0 0.0
2015-Mar-27 17:29N 54°02' E 007°30'0 0.0
2015-Mar-27 16:29N 54°02' E 007°30'0 0.0
2015-Mar-27 15:32N 54°02' E 007°30'0 0.0
2015-Mar-27 14:32N 54°02' E 007°30'0 0.0
2015-Mar-27 13:33N 54°02' E 007°30'4 4.4
2015-Mar-27 12:33N 54°07' E 007°30'1212.1
2015-Mar-27 11:34N 54°18' E 007°22'1312.5
2015-Mar-27 10:33N 54°29' E 007°13'1212.2
2015-Mar-27 09:34N 54°40' E 007°05'1211.9
2015-Mar-27 08:34N 54°51' E 006°57'1211.7
2015-Mar-27 07:34N 55°02' E 006°50'1211.4
2015-Mar-27 06:33N 55°13' E 006°44'1110.9
2015-Mar-27 05:34N 55°24' E 006°42'1111.3
2015-Mar-27 04:33N 55°35' E 006°44'12310.9
2015-Mar-26 17:18N 57°28' E 008°14'7611.1
2015-Mar-26 10:31N 57°50' E 010°30'1111.7
2015-Mar-26 09:34N 57°49' E 010°51'1211.5
2015-Mar-26 08:34N 57°46' E 011°11'1212.1
2015-Mar-26 07:34N 57°38' E 011°29'1010.2
2015-Mar-26 06:34N 57°41' E 011°47'3 2.5
2015-Mar-26 05:33N 57°41' E 011°52'0 0.0
2015-Mar-26 04:33N 57°41' E 011°52'0 0.0
2015-Mar-26 03:33N 57°41' E 011°52'0 0.0
2015-Mar-26 02:33N 57°41' E 011°52'0 0.0
2015-Mar-26 01:33N 57°41' E 011°52'0 0.0
2015-Mar-26 00:33N 57°41' E 011°52'0 0.0
2015-Mar-25 23:33N 57°41' E 011°52'0 0.0
2015-Mar-25 22:33N 57°41' E 011°52'0 0.0
2015-Mar-25 21:33N 57°41' E 011°52'0 0.0
2015-Mar-25 20:33N 57°41' E 011°52'0 0.0
2015-Mar-25 19:33N 57°41' E 011°52'0 0.0
2015-Mar-25 18:33N 57°41' E 011°52'0 0.0
2015-Mar-25 17:33N 57°41' E 011°52'0 0.0
2015-Mar-25 16:33N 57°41' E 011°52'0 0.0
2015-Mar-25 15:33N 57°41' E 011°52'0 0.0
2015-Mar-25 14:33N 57°41' E 011°52'0 0.0
2015-Mar-25 13:33N 57°41' E 011°52'0 0.0
2015-Mar-25 12:33N 57°41' E 011°52'0 0.0
2015-Mar-25 11:33N 57°41' E 011°52'0 0.0
2015-Mar-25 10:33N 57°41' E 011°52'0 0.0
2015-Mar-25 09:33N 57°41' E 011°52'0 0.0
2015-Mar-25 08:33N 57°41' E 011°52'0 0.0
2015-Mar-25 07:33N 57°41' E 011°52'0 0.0
2015-Mar-25 06:33N 57°41' E 011°52'0 0.0
2015-Mar-25 05:33N 57°41' E 011°52'0 0.0
2015-Mar-25 04:33N 57°41' E 011°52'0 0.0
2015-Mar-25 03:33N 57°41' E 011°52'0 0.0
2015-Mar-25 02:33N 57°41' E 011°52'0 0.0
2015-Mar-25 01:33N 57°41' E 011°52'0 0.0
2015-Mar-25 00:33N 57°41' E 011°52'0 0.0
2015-Mar-24 23:33N 57°41' E 011°52'0 0.0
2015-Mar-24 22:33N 57°41' E 011°52'0 0.0
2015-Mar-24 21:33N 57°41' E 011°52'0 0.0
2015-Mar-24 20:33N 57°41' E 011°52'0 0.0
2015-Mar-24 19:33N 57°41' E 011°52'0 0.0
2015-Mar-24 18:33N 57°41' E 011°52'0 0.0
2015-Mar-24 17:33N 57°41' E 011°52'0 0.0
2015-Mar-24 16:33N 57°41' E 011°52'0 0.0
2015-Mar-24 15:33N 57°41' E 011°52'0 0.0
2015-Mar-24 14:33N 57°41' E 011°52'0 0.0
2015-Mar-24 13:30N 57°41' E 011°52'0 0.0
2015-Mar-24 12:33N 57°41' E 011°52'0 0.0
2015-Mar-24 11:33N 57°41' E 011°52'0 0.0
2015-Mar-24 10:33N 57°41' E 011°52'0 0.0
2015-Mar-24 09:33N 57°41' E 011°52'0 0.0
2015-Mar-24 08:33N 57°41' E 011°52'0 0.0
2015-Mar-24 07:33N 57°41' E 011°52'0 0.0
2015-Mar-24 06:33N 57°41' E 011°52'0 0.0
2015-Mar-24 05:33N 57°41' E 011°52'0 0.0
2015-Mar-24 04:33N 57°41' E 011°52'0 0.0
2015-Mar-24 03:33N 57°41' E 011°52'0 0.0
2015-Mar-24 02:33N 57°41' E 011°52'0 0.0
2015-Mar-24 01:33N 57°41' E 011°52'0 0.0
2015-Mar-24 00:33N 57°41' E 011°52'0 0.3
2015-Mar-23 23:33N 57°41' E 011°51'8 7.9
2015-Mar-23 22:34N 57°36' E 011°40'6 6.2
2015-Mar-23 21:33N 57°38' E 011°29'5 5.1
2015-Mar-23 20:33N 57°40' E 011°20'5 5.3
2015-Mar-23 19:33N 57°43' E 011°12'1110.6
2015-Mar-23 18:33N 57°48' E 010°54'1313.0
2015-Mar-23 17:33N 57°50' E 010°30'1513.1
2015-Mar-23 16:25N 57°49' E 010°02'5613.7
2015-Mar-23 12:22N 57°31' E 008°24'1213.5
2015-Mar-23 11:31N 57°25' E 008°05'6812.6
2015-Mar-23 06:06N 56°28' E 006°56'2212.1
2015-Mar-23 04:17N 56°07' E 006°51'1312.2
2015-Mar-23 03:14N 55°54' E 006°48'912.2
2015-Mar-23 02:29N 55°45' E 006°47'1212.6
2015-Mar-23 01:32N 55°33' E 006°44'1212.6
2015-Mar-23 00:33N 55°21' E 006°42'1211.5
2015-Mar-22 23:32N 55°09' E 006°44'2911.7
2015-Mar-22 21:03N 54°43' E 007°06'611.8
2015-Mar-22 20:33N 54°37' E 007°10'1212.1
2015-Mar-22 19:33N 54°26' E 007°18'1312.6
2015-Mar-22 18:33N 54°15' E 007°27'1212.2
2015-Mar-22 17:34N 54°04' E 007°36'1615.8
2015-Mar-22 16:33N 53°52' E 007°54'1918.7
2015-Mar-22 15:33N 53°42' E 008°20'8 8.4
2015-Mar-22 14:33N 53°36' E 008°31'0 0.0
2015-Mar-22 13:30N 53°36' E 008°31'0 0.0
2015-Mar-22 12:33N 53°36' E 008°31'0 0.0
2015-Mar-22 11:30N 53°36' E 008°31'0 0.0
2015-Mar-22 10:33N 53°36' E 008°31'0 0.0
2015-Mar-22 09:33N 53°36' E 008°31'0 0.0
2015-Mar-22 08:33N 53°36' E 008°31'0 0.0
2015-Mar-22 07:33N 53°36' E 008°31'0 0.0
2015-Mar-22 06:33N 53°36' E 008°31'0 0.0
2015-Mar-22 05:30N 53°36' E 008°31'0 0.0
2015-Mar-22 04:33N 53°36' E 008°31'0 0.0
2015-Mar-22 03:33N 53°36' E 008°31'0 0.0
2015-Mar-22 02:33N 53°36' E 008°31'0 0.0
2015-Mar-22 01:33N 53°36' E 008°31'0 0.0
2015-Mar-22 00:30N 53°36' E 008°31'0 0.0
2015-Mar-21 23:33N 53°36' E 008°31'0 0.0
2015-Mar-21 22:33N 53°36' E 008°31'0 0.2
2015-Mar-21 21:33N 53°36' E 008°31'1414.5
2015-Mar-21 20:33N 53°45' E 008°12'1615.9
2015-Mar-21 19:33N 53°52' E 007°48'1313.2
2015-Mar-21 18:33N 53°53' E 007°25'5 4.9
2015-Mar-21 17:33N 53°53' E 007°17'4 3.5
2015-Mar-21 16:33N 53°52' E 007°11'3 3.4
2015-Mar-21 15:33N 53°52' E 007°06'3 3.5
2015-Mar-21 14:33N 53°51' E 006°60'14 6.2
2015-Mar-21 12:21N 53°48' E 006°37'911.2
2015-Mar-21 11:33N 53°46' E 006°23'1211.8
2015-Mar-21 10:33N 53°42' E 006°04'1212.1
2015-Mar-21 09:33N 53°38' E 005°45'1212.4
2015-Mar-21 08:33N 53°35' E 005°25'1312.6
2015-Mar-21 07:33N 53°31' E 005°04'1312.6
2015-Mar-21 06:33N 53°25' E 004°46'1212.1
2015-Mar-21 05:33N 53°14' E 004°35'1313.1
2015-Mar-21 04:33N 53°03' E 004°25'1413.0
2015-Mar-21 03:29N 52°50' E 004°14'1313.2
2015-Mar-21 02:31N 52°40' E 004°03'1212.8
2015-Mar-21 01:33N 52°29' E 003°54'1212.2
2015-Mar-21 00:33N 52°16' E 003°52'1211.6
2015-Mar-20 23:33N 52°05' E 003°54'9 9.1
2015-Mar-20 22:33N 51°59' E 004°05'2 1.9
2015-Mar-20 21:31N 51°57' E 004°02'0 0.0
2015-Mar-20 20:31N 51°57' E 004°02'0 0.0
2015-Mar-20 19:31N 51°57' E 004°02'0 0.0
2015-Mar-20 18:31N 51°57' E 004°02'0 0.0
2015-Mar-20 17:31N 51°57' E 004°02'0 0.0
2015-Mar-20 16:31N 51°57' E 004°02'0 0.0
2015-Mar-20 15:31N 51°57' E 004°02'0 0.0
2015-Mar-20 14:31N 51°57' E 004°02'0 0.0
2015-Mar-20 13:31N 51°57' E 004°02'0 0.0
2015-Mar-20 12:31N 51°57' E 004°02'0 0.0
2015-Mar-20 11:31N 51°57' E 004°02'0 0.0
2015-Mar-20 10:31N 51°57' E 004°02'0 0.0
2015-Mar-20 09:31N 51°57' E 004°02'0 0.0
2015-Mar-20 08:31N 51°57' E 004°02'0 0.0
2015-Mar-20 07:31N 51°57' E 004°02'0 0.0
2015-Mar-20 06:31N 51°57' E 004°02'1 0.7
2015-Mar-20 05:33N 51°58' E 004°03'3 2.8
2015-Mar-20 04:33N 51°60' E 004°01'1111.3
2015-Mar-20 03:33N 51°59' E 003°42'1211.8
2015-Mar-20 02:33N 51°55' E 003°24'1312.8
2015-Mar-20 01:33N 51°52' E 003°04'2516.4
2015-Mar-20 00:03N 51°53' E 002°24'1016.2
2015-Mar-19 23:27N 51°52' E 002°09'1415.2
2015-Mar-19 22:33N 51°48' E 001°48'1111.2
2015-Mar-19 21:33N 51°55' E 001°34'1010.0
2015-Mar-19 20:33N 51°57' E 001°18'0 0.3
2015-Mar-19 19:32N 51°58' E 001°17'0 0.0
2015-Mar-19 18:32N 51°58' E 001°17'0 0.0
2015-Mar-19 17:29N 51°58' E 001°17'0 0.0
2015-Mar-19 16:32N 51°58' E 001°17'0 0.0
2015-Mar-19 15:32N 51°58' E 001°17'0 0.0
2015-Mar-19 14:32N 51°58' E 001°17'0 0.0
2015-Mar-19 13:32N 51°58' E 001°17'0 0.0
2015-Mar-19 12:32N 51°58' E 001°17'0 0.0
2015-Mar-19 11:32N 51°58' E 001°17'0 0.0
2015-Mar-19 10:32N 51°58' E 001°17'0 0.0
2015-Mar-19 09:32N 51°58' E 001°17'0 0.0
2015-Mar-19 08:32N 51°58' E 001°17'0 0.0
2015-Mar-19 07:32N 51°58' E 001°17'0 0.0
2015-Mar-19 06:26N 51°58' E 001°17'0 0.0
2015-Mar-19 05:29N 51°58' E 001°17'0 0.0
2015-Mar-19 04:29N 51°58' E 001°17'0 0.0
2015-Mar-19 03:29N 51°58' E 001°17'0 0.0
2015-Mar-19 02:29N 51°58' E 001°17'0 0.0
2015-Mar-19 01:32N 51°58' E 001°17'0 0.0
2015-Mar-19 00:32N 51°58' E 001°17'0 0.0
2015-Mar-18 23:32N 51°58' E 001°17'0 0.0
2015-Mar-18 22:32N 51°58' E 001°17'0 0.0
2015-Mar-18 21:32N 51°58' E 001°17'0 0.0
2015-Mar-18 20:32N 51°58' E 001°17'0 0.0
2015-Mar-18 19:32N 51°58' E 001°17'1 1.2
2015-Mar-18 18:33N 51°57' E 001°19'  
Track history (hours):
 
Tides and Currents Weather Stations Pressure Air Temp Water Temp Dewpoint Dewpoint Depression Visibility Wind Speed Wind Dir Waves Ship Positions

Maersk Essen

Last reported at 2015-Mar-28 17:32 UTC. Time now 2015-Mar-28 17:45 UTC.
Position N 53°35' E 008°09'.

Length 367 m; draft 10.4 m.

Type: Ship (hazmat cat A). MMSI: 538004007.

Date/timePositionNaut miles runAvg speedWind from/ knotsBaromVisibWave heightAir tempDewpointWater temp
2015-Mar-28 17:32N 53°35' E 008°09'0 0.0
2015-Mar-28 16:23N 53°35' E 008°09'0 0.0
2015-Mar-28 15:26N 53°35' E 008°09'0 0.0
2015-Mar-28 14:32N 53°35' E 008°09'0 0.0
2015-Mar-28 13:32N 53°35' E 008°09'0 0.0
2015-Mar-28 12:23N 53°35' E 008°09'0 0.0
2015-Mar-28 11:32N 53°35' E 008°09'0 0.0
2015-Mar-28 10:33N 53°35' E 008°09'0 0.0
2015-Mar-28 09:32N 53°35' E 008°09'0 0.0
2015-Mar-28 08:32N 53°35' E 008°09'0 0.0
2015-Mar-28 07:29N 53°35' E 008°09'0 0.0
2015-Mar-28 06:33N 53°35' E 008°09'5 4.7
2015-Mar-28 05:34N 53°40' E 008°06'1111.5
2015-Mar-28 04:34N 53°49' E 007°56'1615.7
2015-Mar-28 03:33N 53°60' E 007°36'3 3.0
2015-Mar-28 02:33N 54°03' E 007°33'2 1.5
2015-Mar-28 01:32N 54°02' E 007°30'0 0.0
2015-Mar-28 00:29N 54°02' E 007°30'0 0.0
2015-Mar-27 23:26N 54°02' E 007°30'0 0.0
2015-Mar-27 22:32N 54°02' E 007°30'0 0.1
2015-Mar-27 21:32N 54°02' E 007°30'0 0.0
2015-Mar-27 20:26N 54°02' E 007°30'0 0.0
2015-Mar-27 19:26N 54°02' E 007°30'0 0.0
2015-Mar-27 18:29N 54°02' E 007°30'0 0.0
2015-Mar-27 17:29N 54°02' E 007°30'0 0.0
2015-Mar-27 16:29N 54°02' E 007°30'0 0.0
2015-Mar-27 15:32N 54°02' E 007°30'0 0.0
2015-Mar-27 14:32N 54°02' E 007°30'0 0.0
2015-Mar-27 13:33N 54°02' E 007°30'4 4.4
2015-Mar-27 12:33N 54°07' E 007°30'1212.1
2015-Mar-27 11:34N 54°18' E 007°22'1312.5
2015-Mar-27 10:33N 54°29' E 007°13'1212.2
2015-Mar-27 09:34N 54°40' E 007°05'1211.9
2015-Mar-27 08:34N 54°51' E 006°57'1211.7
2015-Mar-27 07:34N 55°02' E 006°50'1211.4
2015-Mar-27 06:33N 55°13' E 006°44'1110.9
2015-Mar-27 05:34N 55°24' E 006°42'1111.3
2015-Mar-27 04:33N 55°35' E 006°44'12310.9
2015-Mar-26 17:18N 57°28' E 008°14'7611.1
2015-Mar-26 10:31N 57°50' E 010°30'1111.7
2015-Mar-26 09:34N 57°49' E 010°51'1211.5
2015-Mar-26 08:34N 57°46' E 011°11'1212.1
2015-Mar-26 07:34N 57°38' E 011°29'1010.2
2015-Mar-26 06:34N 57°41' E 011°47'3 2.5
2015-Mar-26 05:33N 57°41' E 011°52'0 0.0
2015-Mar-26 04:33N 57°41' E 011°52'0 0.0
2015-Mar-26 03:33N 57°41' E 011°52'0 0.0
2015-Mar-26 02:33N 57°41' E 011°52'0 0.0
2015-Mar-26 01:33N 57°41' E 011°52'0 0.0
2015-Mar-26 00:33N 57°41' E 011°52'0 0.0
2015-Mar-25 23:33N 57°41' E 011°52'0 0.0
2015-Mar-25 22:33N 57°41' E 011°52'0 0.0
2015-Mar-25 21:33N 57°41' E 011°52'0 0.0
2015-Mar-25 20:33N 57°41' E 011°52'0 0.0
2015-Mar-25 19:33N 57°41' E 011°52'0 0.0
2015-Mar-25 18:33N 57°41' E 011°52'0 0.0
2015-Mar-25 17:33N 57°41' E 011°52'0 0.0
2015-Mar-25 16:33N 57°41' E 011°52'0 0.0
2015-Mar-25 15:33N 57°41' E 011°52'0 0.0
2015-Mar-25 14:33N 57°41' E 011°52'0 0.0
2015-Mar-25 13:33N 57°41' E 011°52'0 0.0
2015-Mar-25 12:33N 57°41' E 011°52'0 0.0
2015-Mar-25 11:33N 57°41' E 011°52'0 0.0
2015-Mar-25 10:33N 57°41' E 011°52'0 0.0
2015-Mar-25 09:33N 57°41' E 011°52'0 0.0
2015-Mar-25 08:33N 57°41' E 011°52'0 0.0
2015-Mar-25 07:33N 57°41' E 011°52'0 0.0
2015-Mar-25 06:33N 57°41' E 011°52'0 0.0
2015-Mar-25 05:33N 57°41' E 011°52'0 0.0
2015-Mar-25 04:33N 57°41' E 011°52'0 0.0
2015-Mar-25 03:33N 57°41' E 011°52'0 0.0
2015-Mar-25 02:33N 57°41' E 011°52'0 0.0
2015-Mar-25 01:33N 57°41' E 011°52'0 0.0
2015-Mar-25 00:33N 57°41' E 011°52'0 0.0
2015-Mar-24 23:33N 57°41' E 011°52'0 0.0
2015-Mar-24 22:33N 57°41' E 011°52'0 0.0
2015-Mar-24 21:33N 57°41' E 011°52'0 0.0
2015-Mar-24 20:33N 57°41' E 011°52'0 0.0
2015-Mar-24 19:33N 57°41' E 011°52'0 0.0
2015-Mar-24 18:33N 57°41' E 011°52'0 0.0
2015-Mar-24 17:33N 57°41' E 011°52'0 0.0
2015-Mar-24 16:33N 57°41' E 011°52'0 0.0
2015-Mar-24 15:33N 57°41' E 011°52'0 0.0
2015-Mar-24 14:33N 57°41' E 011°52'0 0.0
2015-Mar-24 13:30N 57°41' E 011°52'0 0.0
2015-Mar-24 12:33N 57°41' E 011°52'0 0.0
2015-Mar-24 11:33N 57°41' E 011°52'0 0.0
2015-Mar-24 10:33N 57°41' E 011°52'0 0.0
2015-Mar-24 09:33N 57°41' E 011°52'0 0.0
2015-Mar-24 08:33N 57°41' E 011°52'0 0.0
2015-Mar-24 07:33N 57°41' E 011°52'0 0.0
2015-Mar-24 06:33N 57°41' E 011°52'0 0.0
2015-Mar-24 05:33N 57°41' E 011°52'0 0.0
2015-Mar-24 04:33N 57°41' E 011°52'0 0.0
2015-Mar-24 03:33N 57°41' E 011°52'0 0.0
2015-Mar-24 02:33N 57°41' E 011°52'0 0.0
2015-Mar-24 01:33N 57°41' E 011°52'0 0.0
2015-Mar-24 00:33N 57°41' E 011°52'0 0.3
2015-Mar-23 23:33N 57°41' E 011°51'8 7.9
2015-Mar-23 22:34N 57°36' E 011°40'6 6.2
2015-Mar-23 21:33N 57°38' E 011°29'5 5.1
2015-Mar-23 20:33N 57°40' E 011°20'5 5.3
2015-Mar-23 19:33N 57°43' E 011°12'1110.6
2015-Mar-23 18:33N 57°48' E 010°54'1313.0
2015-Mar-23 17:33N 57°50' E 010°30'1513.1
2015-Mar-23 16:25N 57°49' E 010°02'5613.7
2015-Mar-23 12:22N 57°31' E 008°24'1213.5
2015-Mar-23 11:31N 57°25' E 008°05'6812.6
2015-Mar-23 06:06N 56°28' E 006°56'2212.1
2015-Mar-23 04:17N 56°07' E 006°51'1312.2
2015-Mar-23 03:14N 55°54' E 006°48'912.2
2015-Mar-23 02:29N 55°45' E 006°47'1212.6
2015-Mar-23 01:32N 55°33' E 006°44'1212.6
2015-Mar-23 00:33N 55°21' E 006°42'1211.5
2015-Mar-22 23:32N 55°09' E 006°44'2911.7
2015-Mar-22 21:03N 54°43' E 007°06'611.8
2015-Mar-22 20:33N 54°37' E 007°10'1212.1
2015-Mar-22 19:33N 54°26' E 007°18'1312.6
2015-Mar-22 18:33N 54°15' E 007°27'1212.2
2015-Mar-22 17:34N 54°04' E 007°36'1615.8
2015-Mar-22 16:33N 53°52' E 007°54'1918.7
2015-Mar-22 15:33N 53°42' E 008°20'8 8.4
2015-Mar-22 14:33N 53°36' E 008°31'0 0.0
2015-Mar-22 13:30N 53°36' E 008°31'0 0.0
2015-Mar-22 12:33N 53°36' E 008°31'0 0.0
2015-Mar-22 11:30N 53°36' E 008°31'0 0.0
2015-Mar-22 10:33N 53°36' E 008°31'0 0.0
2015-Mar-22 09:33N 53°36' E 008°31'0 0.0
2015-Mar-22 08:33N 53°36' E 008°31'0 0.0
2015-Mar-22 07:33N 53°36' E 008°31'0 0.0
2015-Mar-22 06:33N 53°36' E 008°31'0 0.0
2015-Mar-22 05:30N 53°36' E 008°31'0 0.0
2015-Mar-22 04:33N 53°36' E 008°31'0 0.0
2015-Mar-22 03:33N 53°36' E 008°31'0 0.0
2015-Mar-22 02:33N 53°36' E 008°31'0 0.0
2015-Mar-22 01:33N 53°36' E 008°31'0 0.0
2015-Mar-22 00:30N 53°36' E 008°31'0 0.0
2015-Mar-21 23:33N 53°36' E 008°31'0 0.0
2015-Mar-21 22:33N 53°36' E 008°31'0 0.2
2015-Mar-21 21:33N 53°36' E 008°31'1414.5
2015-Mar-21 20:33N 53°45' E 008°12'1615.9
2015-Mar-21 19:33N 53°52' E 007°48'1313.2
2015-Mar-21 18:33N 53°53' E 007°25'5 4.9
2015-Mar-21 17:33N 53°53' E 007°17'4 3.5
2015-Mar-21 16:33N 53°52' E 007°11'3 3.4
2015-Mar-21 15:33N 53°52' E 007°06'3 3.5
2015-Mar-21 14:33N 53°51' E 006°60'14 6.2
2015-Mar-21 12:21N 53°48' E 006°37'911.2
2015-Mar-21 11:33N 53°46' E 006°23'1211.8
2015-Mar-21 10:33N 53°42' E 006°04'1212.1
2015-Mar-21 09:33N 53°38' E 005°45'1212.4
2015-Mar-21 08:33N 53°35' E 005°25'1312.6
2015-Mar-21 07:33N 53°31' E 005°04'1312.6
2015-Mar-21 06:33N 53°25' E 004°46'1212.1
2015-Mar-21 05:33N 53°14' E 004°35'1313.1
2015-Mar-21 04:33N 53°03' E 004°25'1413.0
2015-Mar-21 03:29N 52°50' E 004°14'1313.2
2015-Mar-21 02:31N 52°40' E 004°03'1212.8
2015-Mar-21 01:33N 52°29' E 003°54'1212.2
2015-Mar-21 00:33N 52°16' E 003°52'1211.6
2015-Mar-20 23:33N 52°05' E 003°54'9 9.1
2015-Mar-20 22:33N 51°59' E 004°05'2 1.9
2015-Mar-20 21:31N 51°57' E 004°02'0 0.0
2015-Mar-20 20:31N 51°57' E 004°02'0 0.0
2015-Mar-20 19:31N 51°57' E 004°02'0 0.0
2015-Mar-20 18:31N 51°57' E 004°02'0 0.0
2015-Mar-20 17:31N 51°57' E 004°02'0 0.0
2015-Mar-20 16:31N 51°57' E 004°02'0 0.0
2015-Mar-20 15:31N 51°57' E 004°02'0 0.0
2015-Mar-20 14:31N 51°57' E 004°02'0 0.0
2015-Mar-20 13:31N 51°57' E 004°02'0 0.0
2015-Mar-20 12:31N 51°57' E 004°02'0 0.0
2015-Mar-20 11:31N 51°57' E 004°02'0 0.0
2015-Mar-20 10:31N 51°57' E 004°02'0 0.0
2015-Mar-20 09:31N 51°57' E 004°02'0 0.0
2015-Mar-20 08:31N 51°57' E 004°02'0 0.0
2015-Mar-20 07:31N 51°57' E 004°02'0 0.0
2015-Mar-20 06:31N 51°57' E 004°02'1 0.7
2015-Mar-20 05:33N 51°58' E 004°03'3 2.8
2015-Mar-20 04:33N 51°60' E 004°01'1111.3
2015-Mar-20 03:33N 51°59' E 003°42'1211.8
2015-Mar-20 02:33N 51°55' E 003°24'1312.8
2015-Mar-20 01:33N 51°52' E 003°04'2516.4
2015-Mar-20 00:03N 51°53' E 002°24'1016.2
2015-Mar-19 23:27N 51°52' E 002°09'1415.2
2015-Mar-19 22:33N 51°48' E 001°48'1111.2
2015-Mar-19 21:33N 51°55' E 001°34'1010.0
2015-Mar-19 20:33N 51°57' E 001°18'0 0.3
2015-Mar-19 19:32N 51°58' E 001°17'0 0.0
2015-Mar-19 18:32N 51°58' E 001°17'0 0.0
2015-Mar-19 17:29N 51°58' E 001°17'0 0.0
2015-Mar-19 16:32N 51°58' E 001°17'0 0.0
2015-Mar-19 15:32N 51°58' E 001°17'0 0.0
2015-Mar-19 14:32N 51°58' E 001°17'0 0.0
2015-Mar-19 13:32N 51°58' E 001°17'0 0.0
2015-Mar-19 12:32N 51°58' E 001°17'0 0.0
2015-Mar-19 11:32N 51°58' E 001°17'0 0.0
2015-Mar-19 10:32N 51°58' E 001°17'0 0.0
2015-Mar-19 09:32N 51°58' E 001°17'0 0.0
2015-Mar-19 08:32N 51°58' E 001°17'0 0.0
2015-Mar-19 07:32N 51°58' E 001°17'0 0.0
2015-Mar-19 06:26N 51°58' E 001°17'0 0.0
2015-Mar-19 05:29N 51°58' E 001°17'0 0.0
2015-Mar-19 04:29N 51°58' E 001°17'0 0.0
2015-Mar-19 03:29N 51°58' E 001°17'0 0.0
2015-Mar-19 02:29N 51°58' E 001°17'0 0.0
2015-Mar-19 01:32N 51°58' E 001°17'0 0.0
2015-Mar-19 00:32N 51°58' E 001°17'0 0.0
2015-Mar-18 23:32N 51°58' E 001°17'0 0.0
2015-Mar-18 22:32N 51°58' E 001°17'0 0.0
2015-Mar-18 21:32N 51°58' E 001°17'0 0.0
2015-Mar-18 20:32N 51°58' E 001°17'0 0.0
2015-Mar-18 19:32N 51°58' E 001°17'1 1.2
2015-Mar-18 18:33N 51°57' E 001°19'  

Dump ship's entire track history